sensor_id;sensor_type;location;lat;lon;timestamp;pressure;altitude;pressure_sealevel;temperature;humidity
58245;BME280;44550;43.864;25.986;2023-04-23T00:03:23;101180.38;;;12.69;73.24
58245;BME280;44550;43.864;25.986;2023-04-23T00:07:24;101187.59;;;13.22;75.03
58245;BME280;44550;43.864;25.986;2023-04-23T00:11:26;101182.47;;;13.54;75.51
58245;BME280;44550;43.864;25.986;2023-04-23T00:15:29;101185.94;;;13.52;75.74
58245;BME280;44550;43.864;25.986;2023-04-23T00:19:29;101186.00;;;13.81;76.16
58245;BME280;44550;43.864;25.986;2023-04-23T00:23:30;101179.84;;;14.17;75.27
58245;BME280;44550;43.864;25.986;2023-04-23T00:27:30;101174.56;;;14.22;74.42
58245;BME280;44550;43.864;25.986;2023-04-23T00:31:32;101176.34;;;13.95;75.41
58245;BME280;44550;43.864;25.986;2023-04-23T00:35:36;101175.47;;;13.69;76.26
58245;BME280;44550;43.864;25.986;2023-04-23T00:39:36;101170.16;;;13.46;77.42
58245;BME280;44550;43.864;25.986;2023-04-23T00:43:37;101172.78;;;13.43;77.45
58245;BME280;44550;43.864;25.986;2023-04-23T00:47:39;101175.44;;;13.67;76.80
58245;BME280;44550;43.864;25.986;2023-04-23T00:51:40;101178.97;;;13.97;76.16
58245;BME280;44550;43.864;25.986;2023-04-23T00:55:44;101168.47;;;13.88;75.54
58245;BME280;44550;43.864;25.986;2023-04-23T00:59:45;101170.19;;;13.90;75.96
58245;BME280;44550;43.864;25.986;2023-04-23T01:03:50;101166.69;;;13.86;77.42
58245;BME280;44550;43.864;25.986;2023-04-23T01:08:02;101161.44;;;13.93;77.53
58245;BME280;44550;43.864;25.986;2023-04-23T01:12:03;101170.19;;;14.10;76.81
58245;BME280;44550;43.864;25.986;2023-04-23T01:16:06;101167.59;;;14.08;75.88
58245;BME280;44550;43.864;25.986;2023-04-23T01:20:12;101168.44;;;14.03;75.73
58245;BME280;44550;43.864;25.986;2023-04-23T01:24:16;101167.59;;;13.98;75.28
58245;BME280;44550;43.864;25.986;2023-04-23T01:28:24;101164.94;;;13.96;75.40
58245;BME280;44550;43.864;25.986;2023-04-23T01:32:25;101168.47;;;13.78;76.90
58245;BME280;44550;43.864;25.986;2023-04-23T01:36:27;101169.34;;;13.76;77.63
58245;BME280;44550;43.864;25.986;2023-04-23T01:40:29;101172.81;;;13.70;77.67
58245;BME280;44550;43.864;25.986;2023-04-23T01:44:30;101166.69;;;13.73;77.02
58245;BME280;44550;43.864;25.986;2023-04-23T01:48:31;101175.44;;;13.64;76.81
58245;BME280;44550;43.864;25.986;2023-04-23T01:52:33;101171.06;;;13.48;77.05
58245;BME280;44550;43.864;25.986;2023-04-23T01:56:39;101172.72;;;13.24;77.70
58245;BME280;44550;43.864;25.986;2023-04-23T02:00:40;101176.97;;;12.93;78.98
58245;BME280;44550;43.864;25.986;2023-04-23T02:04:41;101182.94;;;12.55;80.08
58245;BME280;44550;43.864;25.986;2023-04-23T02:08:44;101177.59;;;12.44;80.81
58245;BME280;44550;43.864;25.986;2023-04-23T02:12:52;101180.22;;;12.44;81.21
58245;BME280;44550;43.864;25.986;2023-04-23T02:16:54;101176.72;;;12.39;81.05
58245;BME280;44550;43.864;25.986;2023-04-23T02:20:54;101174.84;;;12.25;81.79
58245;BME280;44550;43.864;25.986;2023-04-23T02:24:56;101171.16;;;11.96;82.71
58245;BME280;44550;43.864;25.986;2023-04-23T02:28:59;101179.50;;;11.57;85.38
58245;BME280;44550;43.864;25.986;2023-04-23T02:32:59;101190.34;;;11.10;88.02
58245;BME280;44550;43.864;25.986;2023-04-23T02:37:00;101184.91;;;10.95;89.30
58245;BME280;44550;43.864;25.986;2023-04-23T02:41:08;101188.19;;;10.77;90.57
58245;BME280;44550;43.864;25.986;2023-04-23T02:45:14;101181.44;;;10.96;89.53
58245;BME280;44550;43.864;25.986;2023-04-23T02:49:18;101188.75;;;11.24;88.18
58245;BME280;44550;43.864;25.986;2023-04-23T02:53:19;101184.88;;;10.92;89.16
58245;BME280;44550;43.864;25.986;2023-04-23T02:57:34;101198.03;;;10.34;92.60
58245;BME280;44550;43.864;25.986;2023-04-23T03:01:39;101197.06;;;10.27;93.24
58245;BME280;44550;43.864;25.986;2023-04-23T03:05:43;101198.03;;;10.35;93.11
58245;BME280;44550;43.864;25.986;2023-04-23T03:09:44;101199.44;;;10.15;94.63
58245;BME280;44550;43.864;25.986;2023-04-23T03:13:45;101197.31;;;9.93;96.33
58245;BME280;44550;43.864;25.986;2023-04-23T03:17:49;101201.41;;;9.75;97.90
58245;BME280;44550;43.864;25.986;2023-04-23T03:21:50;101211.41;;;9.52;99.86
58245;BME280;44550;43.864;25.986;2023-04-23T03:25:52;101212.41;;;9.57;99.84
58245;BME280;44550;43.864;25.986;2023-04-23T03:29:53;101208.25;;;9.69;99.20
58245;BME280;44550;43.864;25.986;2023-04-23T03:34:00;101215.03;;;9.59;99.12
58245;BME280;44550;43.864;25.986;2023-04-23T03:38:09;101215.97;;;9.62;99.11
58245;BME280;44550;43.864;25.986;2023-04-23T03:42:10;101219.59;;;9.71;98.37
58245;BME280;44550;43.864;25.986;2023-04-23T03:46:12;101227.75;;;9.89;96.64
58245;BME280;44550;43.864;25.986;2023-04-23T03:50:14;101227.00;;;9.96;94.90
58245;BME280;44550;43.864;25.986;2023-04-23T03:54:15;101229.88;;;10.10;95.15
58245;BME280;44550;43.864;25.986;2023-04-23T03:58:17;101227.56;;;10.27;93.21
58245;BME280;44550;43.864;25.986;2023-04-23T04:02:21;101233.34;;;10.64;91.89
58245;BME280;44550;43.864;25.986;2023-04-23T04:06:23;101239.94;;;10.99;89.70
58245;BME280;44550;43.864;25.986;2023-04-23T04:10:28;101244.25;;;11.72;86.13
58245;BME280;44550;43.864;25.986;2023-04-23T04:14:38;101239.19;;;11.86;80.61
58245;BME280;44550;43.864;25.986;2023-04-23T04:18:42;101242.72;;;11.91;82.81
58245;BME280;44550;43.864;25.986;2023-04-23T04:22:48;101245.00;;;12.56;78.40
58245;BME280;44550;43.864;25.986;2023-04-23T04:26:49;101247.53;;;12.44;78.17
58245;BME280;44550;43.864;25.986;2023-04-23T04:30:56;101251.16;;;12.61;76.86
58245;BME280;44550;43.864;25.986;2023-04-23T04:34:58;101253.19;;;13.08;74.34
58245;BME280;44550;43.864;25.986;2023-04-23T04:39:00;101257.75;;;13.48;72.11
58245;BME280;44550;43.864;25.986;2023-04-23T04:43:01;101258.38;;;12.96;73.61
58245;BME280;44550;43.864;25.986;2023-04-23T04:47:02;101258.47;;;11.92;76.95
58245;BME280;44550;43.864;25.986;2023-04-23T04:51:13;101258.69;;;12.15;77.69
58245;BME280;44550;43.864;25.986;2023-04-23T04:55:26;101260.06;;;12.85;75.91
58245;BME280;44550;43.864;25.986;2023-04-23T04:59:30;101262.69;;;12.86;74.82
58245;BME280;44550;43.864;25.986;2023-04-23T05:03:33;101265.47;;;13.15;73.72
58245;BME280;44550;43.864;25.986;2023-04-23T05:07:39;101260.50;;;14.26;69.28
58245;BME280;44550;43.864;25.986;2023-04-23T05:11:53;101257.72;;;15.16;65.15
58245;BME280;44550;43.864;25.986;2023-04-23T05:16:00;101255.59;;;15.92;60.56
58245;BME280;44550;43.864;25.986;2023-04-23T05:20:02;101263.97;;;16.46;59.23
58245;BME280;44550;43.864;25.986;2023-04-23T05:24:06;101260.22;;;16.68;57.85
58245;BME280;44550;43.864;25.986;2023-04-23T05:28:12;101260.91;;;16.90;58.22
58245;BME280;44550;43.864;25.986;2023-04-23T05:32:12;101258.53;;;16.61;57.45
58245;BME280;44550;43.864;25.986;2023-04-23T05:36:15;101267.81;;;16.02;59.60
58245;BME280;44550;43.864;25.986;2023-04-23T05:40:23;101265.41;;;15.71;60.01
58245;BME280;44550;43.864;25.986;2023-04-23T05:44:25;101264.22;;;16.15;59.83
58245;BME280;44550;43.864;25.986;2023-04-23T05:48:25;101266.34;;;16.74;57.03
58245;BME280;44550;43.864;25.986;2023-04-23T05:52:27;101270.75;;;16.75;56.12
58245;BME280;44550;43.864;25.986;2023-04-23T05:56:30;101263.53;;;16.90;56.07
58245;BME280;44550;43.864;25.986;2023-04-23T06:00:33;101268.88;;;16.89;53.95
58245;BME280;44550;43.864;25.986;2023-04-23T06:04:37;101262.44;;;17.78;51.64
58245;BME280;44550;43.864;25.986;2023-04-23T06:08:50;101264.16;;;17.83;52.43
58245;BME280;44550;43.864;25.986;2023-04-23T06:12:51;101270.47;;;17.72;51.23
58245;BME280;44550;43.864;25.986;2023-04-23T06:17:00;101271.66;;;16.71;54.39
58245;BME280;44550;43.864;25.986;2023-04-23T06:21:02;101268.97;;;16.74;57.48
58245;BME280;44550;43.864;25.986;2023-04-23T06:25:19;101269.16;;;16.52;59.44
58245;BME280;44550;43.864;25.986;2023-04-23T06:29:28;101268.28;;;16.55;59.31
58245;BME280;44550;43.864;25.986;2023-04-23T06:33:38;101260.25;;;16.67;58.98
58245;BME280;44550;43.864;25.986;2023-04-23T06:37:39;101263.16;;;17.26;57.32
58245;BME280;44550;43.864;25.986;2023-04-23T06:41:42;101258.06;;;17.77;56.37
58245;BME280;44550;43.864;25.986;2023-04-23T06:45:44;101268.66;;;17.75;55.46
58245;BME280;44550;43.864;25.986;2023-04-23T06:49:52;101257.38;;;17.61;54.93
58245;BME280;44550;43.864;25.986;2023-04-23T06:54:23;101250.69;;;17.99;53.53
58245;BME280;44550;43.864;25.986;2023-04-23T06:58:29;101260.44;;;18.51;52.69
58245;BME280;44550;43.864;25.986;2023-04-23T07:02:31;101257.63;;;19.48;48.96
58245;BME280;44550;43.864;25.986;2023-04-23T07:06:38;101254.13;;;18.58;49.83
58245;BME280;44550;43.864;25.986;2023-04-23T07:10:44;101256.41;;;17.67;52.10
58245;BME280;44550;43.864;25.986;2023-04-23T07:14:45;101259.44;;;19.03;44.71
58245;BME280;44550;43.864;25.986;2023-04-23T07:18:49;101252.81;;;19.27;42.54
58245;BME280;44550;43.864;25.986;2023-04-23T07:22:55;101255.78;;;19.10;40.55
58245;BME280;44550;43.864;25.986;2023-04-23T07:26:56;101254.88;;;18.65;42.88
58245;BME280;44550;43.864;25.986;2023-04-23T07:30:57;101248.50;;;19.20;42.36
58245;BME280;44550;43.864;25.986;2023-04-23T07:35:00;101253.50;;;19.35;42.67
58245;BME280;44550;43.864;25.986;2023-04-23T07:39:05;101238.56;;;19.31;42.67
58245;BME280;44550;43.864;25.986;2023-04-23T07:43:06;101247.22;;;19.81;39.12
58245;BME280;44550;43.864;25.986;2023-04-23T07:47:13;101244.16;;;19.97;37.89
58245;BME280;44550;43.864;25.986;2023-04-23T07:51:15;101252.06;;;19.20;39.09
58245;BME280;44550;43.864;25.986;2023-04-23T07:55:17;101244.25;;;19.13;38.68
58245;BME280;44550;43.864;25.986;2023-04-23T07:59:21;101245.16;;;19.54;38.23
58245;BME280;44550;43.864;25.986;2023-04-23T08:03:21;101248.38;;;19.26;36.37
58245;BME280;44550;43.864;25.986;2023-04-23T08:07:25;101245.06;;;19.57;35.74
58245;BME280;44550;43.864;25.986;2023-04-23T08:11:28;101230.94;;;19.95;36.04
58245;BME280;44550;43.864;25.986;2023-04-23T08:15:28;101229.22;;;20.28;34.72
58245;BME280;44550;43.864;25.986;2023-04-23T08:19:29;101231.75;;;19.99;35.34
58245;BME280;44550;43.864;25.986;2023-04-23T08:23:33;101228.84;;;20.78;34.57
58245;BME280;44550;43.864;25.986;2023-04-23T08:27:35;101219.88;;;20.48;34.42
58245;BME280;44550;43.864;25.986;2023-04-23T08:31:41;101223.75;;;21.01;33.82
58245;BME280;44550;43.864;25.986;2023-04-23T08:35:49;101224.25;;;21.14;33.69
58245;BME280;44550;43.864;25.986;2023-04-23T08:39:50;101224.56;;;20.72;34.57
58245;BME280;44550;43.864;25.986;2023-04-23T08:43:54;101228.22;;;20.34;34.67
58245;BME280;44550;43.864;25.986;2023-04-23T08:47:57;101223.69;;;20.72;34.19
58245;BME280;44550;43.864;25.986;2023-04-23T08:52:01;101218.34;;;20.73;33.85
58245;BME280;44550;43.864;25.986;2023-04-23T08:56:08;101217.78;;;20.93;34.02
58245;BME280;44550;43.864;25.986;2023-04-23T09:00:14;101215.25;;;20.56;33.67
58245;BME280;44550;43.864;25.986;2023-04-23T09:04:22;101217.50;;;20.37;34.00
58245;BME280;44550;43.864;25.986;2023-04-23T09:08:26;101207.97;;;20.64;34.40
58245;BME280;44550;43.864;25.986;2023-04-23T09:12:32;101213.28;;;20.64;33.93
58245;BME280;44550;43.864;25.986;2023-04-23T09:16:41;101205.84;;;20.77;34.06
58245;BME280;44550;43.864;25.986;2023-04-23T09:20:51;101207.75;;;20.72;35.23
58245;BME280;44550;43.864;25.986;2023-04-23T09:24:55;101209.63;;;20.99;33.44
58245;BME280;44550;43.864;25.986;2023-04-23T09:28:56;101199.56;;;21.09;32.89
58245;BME280;44550;43.864;25.986;2023-04-23T09:33:01;101202.03;;;20.85;33.42
58245;BME280;44550;43.864;25.986;2023-04-23T09:37:10;101197.78;;;20.80;33.54
58245;BME280;44550;43.864;25.986;2023-04-23T09:41:22;101196.75;;;21.15;33.51
58245;BME280;44550;43.864;25.986;2023-04-23T09:45:28;101196.47;;;21.54;33.24
58245;BME280;44550;43.864;25.986;2023-04-23T09:49:31;101182.50;;;21.47;32.95
58245;BME280;44550;43.864;25.986;2023-04-23T09:53:39;101184.97;;;21.24;33.62
58245;BME280;44550;43.864;25.986;2023-04-23T09:57:40;101175.69;;;21.07;32.72
58245;BME280;44550;43.864;25.986;2023-04-23T10:01:43;101178.88;;;21.20;32.84
58245;BME280;44550;43.864;25.986;2023-04-23T10:05:49;101168.78;;;21.02;33.00
58245;BME280;44550;43.864;25.986;2023-04-23T10:10:04;101165.91;;;21.09;33.94
58245;BME280;44550;43.864;25.986;2023-04-23T10:14:20;101169.88;;;20.95;33.18
58245;BME280;44550;43.864;25.986;2023-04-23T10:18:21;101164.44;;;20.99;32.95
58245;BME280;44550;43.864;25.986;2023-04-23T10:22:25;101152.88;;;20.69;34.37
58245;BME280;44550;43.864;25.986;2023-04-23T10:26:29;101151.84;;;20.75;35.06
58245;BME280;44550;43.864;25.986;2023-04-23T10:30:32;101155.56;;;20.99;34.24
58245;BME280;44550;43.864;25.986;2023-04-23T10:34:38;101148.59;;;20.95;34.66
58245;BME280;44550;43.864;25.986;2023-04-23T10:38:43;101141.56;;;20.94;34.81
58245;BME280;44550;43.864;25.986;2023-04-23T10:42:56;101138.97;;;21.20;34.96
58245;BME280;44550;43.864;25.986;2023-04-23T10:46:57;101140.59;;;20.96;34.68
58245;BME280;44550;43.864;25.986;2023-04-23T10:50:58;101127.69;;;21.42;34.43
58245;BME280;44550;43.864;25.986;2023-04-23T10:55:24;101130.16;;;21.48;33.42
58245;BME280;44550;43.864;25.986;2023-04-23T10:59:28;101120.59;;;21.69;34.24
58245;BME280;44550;43.864;25.986;2023-04-23T11:03:35;101114.94;;;21.51;33.06
58245;BME280;44550;43.864;25.986;2023-04-23T11:08:00;101109.44;;;21.84;32.54
58245;BME280;44550;43.864;25.986;2023-04-23T11:12:45;101108.84;;;21.76;33.00
58245;BME280;44550;43.864;25.986;2023-04-23T11:22:04;101101.66;;;21.78;32.73
58245;BME280;44550;43.864;25.986;2023-04-23T11:26:16;101105.31;;;22.00;31.12
58245;BME280;44550;43.864;25.986;2023-04-23T11:30:22;101100.25;;;22.19;31.85
58245;BME280;44550;43.864;25.986;2023-04-23T11:34:23;101091.31;;;22.69;31.34
58245;BME280;44550;43.864;25.986;2023-04-23T11:38:30;101086.13;;;22.88;30.06
58245;BME280;44550;43.864;25.986;2023-04-23T11:42:30;101077.34;;;22.86;29.28
58245;BME280;44550;43.864;25.986;2023-04-23T11:46:34;101074.22;;;22.74;30.07
58245;BME280;44550;43.864;25.986;2023-04-23T11:50:35;101084.50;;;22.62;29.84
58245;BME280;44550;43.864;25.986;2023-04-23T11:54:38;101086.75;;;22.72;29.46
58245;BME280;44550;43.864;25.986;2023-04-23T11:58:45;101081.34;;;22.74;30.81
58245;BME280;44550;43.864;25.986;2023-04-23T12:02:56;101072.56;;;22.48;29.09
58245;BME280;44550;43.864;25.986;2023-04-23T12:06:59;101069.47;;;21.86;30.17
58245;BME280;44550;43.864;25.986;2023-04-23T12:11:10;101063.78;;;21.43;29.35
58245;BME280;44550;43.864;25.986;2023-04-23T12:15:13;101065.53;;;21.16;30.86
58245;BME280;44550;43.864;25.986;2023-04-23T12:19:17;101055.22;;;21.05;30.76
58245;BME280;44550;43.864;25.986;2023-04-23T12:23:24;101047.13;;;21.10;30.41
58245;BME280;44550;43.864;25.986;2023-04-23T12:27:27;101034.63;;;21.67;30.31
58245;BME280;44550;43.864;25.986;2023-04-23T12:31:32;101023.47;;;22.54;29.47
58245;BME280;44550;43.864;25.986;2023-04-23T12:35:41;101016.09;;;23.28;28.03
58245;BME280;44550;43.864;25.986;2023-04-23T12:39:43;101017.47;;;23.59;26.96
58245;BME280;44550;43.864;25.986;2023-04-23T12:43:44;101008.44;;;23.41;27.15
58245;BME280;44550;43.864;25.986;2023-04-23T12:47:45;101004.97;;;23.39;27.82
58245;BME280;44550;43.864;25.986;2023-04-23T12:51:48;101006.00;;;23.77;27.39
58245;BME280;44550;43.864;25.986;2023-04-23T12:55:49;101006.56;;;23.23;27.20
58245;BME280;44550;43.864;25.986;2023-04-23T12:59:51;101000.97;;;23.49;26.30
58245;BME280;44550;43.864;25.986;2023-04-23T13:03:53;100994.97;;;23.02;26.82
58245;BME280;44550;43.864;25.986;2023-04-23T13:07:56;100997.09;;;23.36;26.44
58245;BME280;44550;43.864;25.986;2023-04-23T13:11:57;100994.06;;;22.79;26.79
58245;BME280;44550;43.864;25.986;2023-04-23T13:16:01;100986.31;;;22.73;27.19
58245;BME280;44550;43.864;25.986;2023-04-23T13:20:02;100984.97;;;22.61;26.06
58245;BME280;44550;43.864;25.986;2023-04-23T13:24:07;100989.28;;;22.65;26.89
58245;BME280;44550;43.864;25.986;2023-04-23T13:28:17;100975.03;;;22.88;25.25
58245;BME280;44550;43.864;25.986;2023-04-23T13:32:23;100976.34;;;22.78;25.62
58245;BME280;44550;43.864;25.986;2023-04-23T13:36:24;100977.25;;;22.55;26.18
58245;BME280;44550;43.864;25.986;2023-04-23T13:40:30;100973.34;;;22.86;27.23
58245;BME280;44550;43.864;25.986;2023-04-23T13:44:44;100980.00;;;23.19;26.37
58245;BME280;44550;43.864;25.986;2023-04-23T13:48:46;100976.59;;;23.16;25.82
58245;BME280;44550;43.864;25.986;2023-04-23T13:52:50;100972.47;;;23.50;26.24
58245;BME280;44550;43.864;25.986;2023-04-23T13:56:56;100962.81;;;23.67;24.79
58245;BME280;44550;43.864;25.986;2023-04-23T14:01:00;100970.31;;;22.73;25.13
58245;BME280;44550;43.864;25.986;2023-04-23T14:05:03;100964.81;;;23.21;26.33
58245;BME280;44550;43.864;25.986;2023-04-23T14:09:06;100959.88;;;23.33;26.35
58245;BME280;44550;43.864;25.986;2023-04-23T14:13:09;100954.06;;;23.64;26.16
58245;BME280;44550;43.864;25.986;2023-04-23T14:17:11;100962.88;;;23.66;26.30
58245;BME280;44550;43.864;25.986;2023-04-23T14:21:11;100957.53;;;23.45;26.95
58245;BME280;44550;43.864;25.986;2023-04-23T14:25:13;100953.00;;;23.48;26.52
58245;BME280;44550;43.864;25.986;2023-04-23T14:29:22;100952.31;;;23.63;26.24
58245;BME280;44550;43.864;25.986;2023-04-23T14:33:26;100955.72;;;23.87;26.59
58245;BME280;44550;43.864;25.986;2023-04-23T14:37:28;100954.75;;;23.28;26.41
58245;BME280;44550;43.864;25.986;2023-04-23T14:41:32;100945.19;;;23.23;26.55
58245;BME280;44550;43.864;25.986;2023-04-23T14:45:39;100949.97;;;22.92;26.36
58245;BME280;44550;43.864;25.986;2023-04-23T14:49:44;100947.63;;;22.85;26.68
58245;BME280;44550;43.864;25.986;2023-04-23T14:53:47;100942.44;;;22.82;26.94
58245;BME280;44550;43.864;25.986;2023-04-23T14:57:51;100939.94;;;22.99;26.93
58245;BME280;44550;43.864;25.986;2023-04-23T15:01:54;100937.13;;;23.44;26.51
58245;BME280;44550;43.864;25.986;2023-04-23T15:06:04;100934.78;;;23.57;26.18
58245;BME280;44550;43.864;25.986;2023-04-23T15:10:05;100934.00;;;23.55;26.56
58245;BME280;44550;43.864;25.986;2023-04-23T15:14:17;100931.47;;;23.73;27.04
58245;BME280;44550;43.864;25.986;2023-04-23T15:18:20;100930.59;;;23.52;26.64
58245;BME280;44550;43.864;25.986;2023-04-23T15:22:20;100927.69;;;23.56;26.69
58245;BME280;44550;43.864;25.986;2023-04-23T15:26:20;100928.53;;;23.38;26.68
58245;BME280;44550;43.864;25.986;2023-04-23T15:30:21;100922.28;;;23.37;26.84
58245;BME280;44550;43.864;25.986;2023-04-23T15:34:23;100926.41;;;23.04;26.76
58245;BME280;44550;43.864;25.986;2023-04-23T15:38:23;100923.78;;;22.58;27.42
58245;BME280;44550;43.864;25.986;2023-04-23T15:42:24;100927.53;;;22.54;28.51
58245;BME280;44550;43.864;25.986;2023-04-23T15:46:38;100919.16;;;22.63;28.42
58245;BME280;44550;43.864;25.986;2023-04-23T15:50:40;100918.38;;;22.14;28.07
58245;BME280;44550;43.864;25.986;2023-04-23T15:54:41;100912.28;;;22.36;28.39
58245;BME280;44550;43.864;25.986;2023-04-23T15:58:41;100916.66;;;22.37;27.86
58245;BME280;44550;43.864;25.986;2023-04-23T16:02:41;100911.72;;;22.49;28.46
58245;BME280;44550;43.864;25.986;2023-04-23T16:06:47;100920.38;;;22.55;28.67
58245;BME280;44550;43.864;25.986;2023-04-23T16:10:47;100911.06;;;22.21;29.17
58245;BME280;44550;43.864;25.986;2023-04-23T16:14:50;100920.53;;;21.81;30.19
58245;BME280;44550;43.864;25.986;2023-04-23T16:18:50;100922.00;;;21.65;30.83
58245;BME280;44550;43.864;25.986;2023-04-23T16:22:55;100914.22;;;21.60;30.65
58245;BME280;44550;43.864;25.986;2023-04-23T16:26:54;100918.66;;;21.34;31.65
58245;BME280;44550;43.864;25.986;2023-04-23T16:30:54;100920.53;;;21.31;32.41
58245;BME280;44550;43.864;25.986;2023-04-23T16:34:57;100909.94;;;21.29;32.59
58245;BME280;44550;43.864;25.986;2023-04-23T16:39:00;100913.16;;;20.86;34.32
58245;BME280;44550;43.864;25.986;2023-04-23T16:43:07;100919.69;;;20.77;35.46
58245;BME280;44550;43.864;25.986;2023-04-23T16:47:08;100926.75;;;20.49;36.50
58245;BME280;44550;43.864;25.986;2023-04-23T16:51:08;100920.91;;;20.37;37.23
58245;BME280;44550;43.864;25.986;2023-04-23T16:55:10;100924.38;;;19.80;38.17
58245;BME280;44550;43.864;25.986;2023-04-23T16:59:11;100931.19;;;19.56;38.69
58245;BME280;44550;43.864;25.986;2023-04-23T17:03:11;100930.78;;;19.39;39.00
58245;BME280;44550;43.864;25.986;2023-04-23T17:07:12;100929.81;;;19.07;39.85
58245;BME280;44550;43.864;25.986;2023-04-23T17:11:24;100934.00;;;18.82;40.68
58245;BME280;44550;43.864;25.986;2023-04-23T17:15:26;100935.38;;;18.59;41.38
58245;BME280;44550;43.864;25.986;2023-04-23T17:19:26;100936.31;;;18.57;42.37
58245;BME280;44550;43.864;25.986;2023-04-23T17:23:28;100940.19;;;18.42;42.76
58245;BME280;44550;43.864;25.986;2023-04-23T17:27:33;100937.44;;;18.46;43.27
58245;BME280;44550;43.864;25.986;2023-04-23T17:31:33;100949.13;;;18.38;43.01
58245;BME280;44550;43.864;25.986;2023-04-23T17:35:37;100944.69;;;17.96;43.66
58245;BME280;44550;43.864;25.986;2023-04-23T17:39:40;100951.25;;;17.75;44.09
58245;BME280;44550;43.864;25.986;2023-04-23T17:43:45;100958.38;;;17.72;44.27
58245;BME280;44550;43.864;25.986;2023-04-23T17:47:45;100959.34;;;17.66;44.22
58245;BME280;44550;43.864;25.986;2023-04-23T17:51:45;100959.31;;;17.69;44.19
58245;BME280;44550;43.864;25.986;2023-04-23T17:55:50;100961.94;;;17.69;44.32
58245;BME280;44550;43.864;25.986;2023-04-23T17:59:57;100970.41;;;17.40;44.98
58245;BME280;44550;43.864;25.986;2023-04-23T18:04:07;100970.78;;;17.17;45.30
58245;BME280;44550;43.864;25.986;2023-04-23T18:08:08;100978.97;;;17.03;46.06
58245;BME280;44550;43.864;25.986;2023-04-23T18:12:12;100975.66;;;16.89;46.70
58245;BME280;44550;43.864;25.986;2023-04-23T18:16:15;100983.75;;;16.77;47.31
58245;BME280;44550;43.864;25.986;2023-04-23T18:20:17;100992.03;;;16.51;48.29
58245;BME280;44550;43.864;25.986;2023-04-23T18:24:23;100994.72;;;16.46;49.11
58245;BME280;44550;43.864;25.986;2023-04-23T18:28:28;100987.91;;;16.30;50.03
58245;BME280;44550;43.864;25.986;2023-04-23T18:32:33;100989.81;;;16.15;50.79
58245;BME280;44550;43.864;25.986;2023-04-23T18:36:37;100985.50;;;16.10;51.37
58245;BME280;44550;43.864;25.986;2023-04-23T18:40:40;100982.97;;;16.01;51.89
58245;BME280;44550;43.864;25.986;2023-04-23T18:44:40;100985.69;;;15.96;52.53
58245;BME280;44550;43.864;25.986;2023-04-23T18:48:49;100986.75;;;15.78;53.54
58245;BME280;44550;43.864;25.986;2023-04-23T18:52:51;100985.13;;;15.66;54.53
58245;BME280;44550;43.864;25.986;2023-04-23T18:56:51;100992.09;;;15.70;54.79
58245;BME280;44550;43.864;25.986;2023-04-23T19:00:52;100993.91;;;15.62;54.88
58245;BME280;44550;43.864;25.986;2023-04-23T19:04:57;100992.88;;;15.79;54.66
58245;BME280;44550;43.864;25.986;2023-04-23T19:08:57;100999.03;;;15.81;54.80
58245;BME280;44550;43.864;25.986;2023-04-23T19:12:57;100999.00;;;15.84;54.53
58245;BME280;44550;43.864;25.986;2023-04-23T19:16:57;100996.41;;;15.78;54.80
58245;BME280;44550;43.864;25.986;2023-04-23T19:20:59;101004.50;;;15.56;55.65
58245;BME280;44550;43.864;25.986;2023-04-23T19:25:00;101001.94;;;15.50;56.44
58245;BME280;44550;43.864;25.986;2023-04-23T19:29:01;100999.34;;;15.42;56.69
58245;BME280;44550;43.864;25.986;2023-04-23T19:33:01;100994.09;;;15.39;56.91
58245;BME280;44550;43.864;25.986;2023-04-23T19:37:02;100999.44;;;15.32;57.04
58245;BME280;44550;43.864;25.986;2023-04-23T19:41:04;100985.50;;;15.20;57.27
58245;BME280;44550;43.864;25.986;2023-04-23T19:45:05;100979.41;;;15.15;57.91
58245;BME280;44550;43.864;25.986;2023-04-23T19:49:05;100978.56;;;15.09;58.14
58245;BME280;44550;43.864;25.986;2023-04-23T19:53:07;100981.22;;;15.07;57.90
58245;BME280;44550;43.864;25.986;2023-04-23T19:57:07;100975.94;;;15.09;57.58
58245;BME280;44550;43.864;25.986;2023-04-23T20:01:10;100973.28;;;15.13;57.13
58245;BME280;44550;43.864;25.986;2023-04-23T20:05:12;100964.50;;;15.11;57.31
58245;BME280;44550;43.864;25.986;2023-04-23T20:09:14;100967.22;;;15.02;57.82
58245;BME280;44550;43.864;25.986;2023-04-23T20:13:18;100962.94;;;14.87;58.03
58245;BME280;44550;43.864;25.986;2023-04-23T20:17:20;100955.97;;;14.78;58.45
58245;BME280;44550;43.864;25.986;2023-04-23T20:21:23;100952.44;;;14.84;58.07
58245;BME280;44550;43.864;25.986;2023-04-23T20:25:25;100951.59;;;14.80;57.90
58245;BME280;44550;43.864;25.986;2023-04-23T20:29:25;100938.44;;;14.77;57.81
58245;BME280;44550;43.864;25.986;2023-04-23T20:33:27;100942.91;;;14.65;58.90
58245;BME280;44550;43.864;25.986;2023-04-23T20:37:27;100933.34;;;14.54;59.17
58245;BME280;44550;43.864;25.986;2023-04-23T20:41:31;100942.97;;;14.49;59.31
58245;BME280;44550;43.864;25.986;2023-04-23T20:45:32;100941.22;;;14.48;59.35
58245;BME280;44550;43.864;25.986;2023-04-23T20:49:33;100943.03;;;14.39;60.21
58245;BME280;44550;43.864;25.986;2023-04-23T20:53:33;100955.38;;;14.26;61.04
58245;BME280;44550;43.864;25.986;2023-04-23T20:57:36;100947.56;;;14.12;61.76
58245;BME280;44550;43.864;25.986;2023-04-23T21:01:38;100949.34;;;13.99;62.76
58245;BME280;44550;43.864;25.986;2023-04-23T21:05:38;100952.91;;;13.88;63.31